Time;durP1;ratioP1;P1;durP2;ratioP2;P2;SDS_P1;SDS_P2;PMS_P1;PMS_P2;Temp;Humidity;BMP_temperature;BMP_pressure;BME280_temperature;BME280_humidity;BME280_pressure;Samples;Min_cycle;Max_cycle;Signal;HPM_P1;HPM_P2
2024/04/06 00:02:29;;;;;;;;;;;;;;;16.48;55.86;97962.56;5053008;28;20295;-80
2024/04/06 00:05:18;;;;;;;;;;;;;;;16.47;56.05;97959.03;5048311;28;20007;-80
2024/04/06 00:08:04;;;;;;;;;;;;;;;16.45;55.99;97961.31;5034661;28;19925;-80
2024/04/06 00:10:51;;;;;;;;;;;;;;;16.47;55.78;97953.56;5047535;28;20296;-80
2024/04/06 00:13:38;;;;;;;;;;;;;;;16.45;56.06;97958.56;5044720;28;19928;-78
2024/04/06 00:16:24;;;;;;;;;;;;;;;16.46;55.92;97959.41;5046649;28;20347;-79
2024/04/06 00:19:13;;;;;;;;;;;;;;;16.42;55.96;97956.53;5049773;28;19928;-81
2024/04/06 00:21:59;;;;;;;;;;;;;;;16.43;56.34;97949.13;5050908;28;20011;-80
2024/04/06 00:24:46;;;;;;;;;;;;;;;16.43;56.12;97957.34;5033807;28;19924;-82
2024/04/06 00:27:33;;;;;;;;;;;;;;;16.40;56.22;97952.53;5048583;28;19967;-80
2024/04/06 00:30:20;;;;;;;;;;;;;;;16.38;56.13;97946.63;5052598;28;19924;-85
2024/04/06 00:33:06;;;;;;;;;;;;;;;16.36;56.09;97955.19;5052873;28;20016;-82
2024/04/06 00:35:55;;;;;;;;;;;;;;;16.34;56.36;97951.97;5056974;28;19925;-85
2024/04/06 00:38:41;;;;;;;;;;;;;;;16.36;56.65;97957.16;5054212;28;20396;-85
2024/04/06 00:41:29;;;;;;;;;;;;;;;16.31;56.91;97954.66;5033531;28;19931;-84
2024/04/06 00:44:15;;;;;;;;;;;;;;;16.28;57.24;97955.31;5053241;28;19955;-83
2024/04/06 00:47:02;;;;;;;;;;;;;;;16.23;57.25;97965.38;5043706;28;20327;-84
2024/04/06 00:49:50;;;;;;;;;;;;;;;16.21;57.34;97951.25;5039683;28;19924;-83
2024/04/06 00:52:39;;;;;;;;;;;;;;;16.23;57.10;97959.09;5022604;28;19925;-84
2024/04/06 00:55:26;;;;;;;;;;;;;;;16.20;57.12;97959.81;5039144;28;19972;-85
2024/04/06 00:58:13;;;;;;;;;;;;;;;16.20;57.07;97966.09;5047448;28;19924;-78
2024/04/06 01:01:00;;;;;;;;;;;;;;;16.19;57.16;97969.16;5056833;28;19931;-78
2024/04/06 01:03:47;;;;;;;;;;;;;;;16.17;56.94;97969.50;5022853;28;19925;-79
2024/04/06 01:06:33;;;;;;;;;;;;;;;16.15;57.26;97973.75;5054255;28;19924;-78
2024/04/06 01:09:22;;;;;;;;;;;;;;;16.13;57.57;97971.34;5037774;28;20061;-78
2024/04/06 01:12:08;;;;;;;;;;;;;;;16.10;57.83;97958.34;5053222;28;19994;-78
2024/04/06 01:14:55;;;;;;;;;;;;;;;16.07;58.00;97967.25;5041312;28;20015;-78
2024/04/06 01:17:41;;;;;;;;;;;;;;;16.07;57.75;97970.00;5050916;28;20380;-78
2024/04/06 01:20:28;;;;;;;;;;;;;;;16.02;58.63;97963.94;5041519;28;19932;-79
2024/04/06 01:23:15;;;;;;;;;;;;;;;16.00;58.12;97964.31;5043722;28;19968;-78
2024/04/06 01:26:05;;;;;;;;;;;;;;;16.00;58.28;97971.72;5038554;28;20467;-78
2024/04/06 01:28:51;;;;;;;;;;;;;;;15.96;58.71;97966.94;5051368;28;19932;-78
2024/04/06 01:31:39;;;;;;;;;;;;;;;15.94;58.06;97963.75;5052950;28;19928;-78
2024/04/06 01:34:25;;;;;;;;;;;;;;;15.94;58.46;97968.44;5051504;28;19924;-78
2024/04/06 01:37:13;;;;;;;;;;;;;;;15.90;58.37;97973.00;5043056;28;19986;-79
2024/04/06 01:39:59;;;;;;;;;;;;;;;15.89;58.52;97968.66;5057377;28;20007;-84
2024/04/06 01:42:48;;;;;;;;;;;;;;;15.88;58.68;97978.03;5042151;28;19975;-84
2024/04/06 01:45:34;;;;;;;;;;;;;;;15.88;58.95;97980.78;5044116;28;19925;-83
2024/04/06 01:48:21;;;;;;;;;;;;;;;15.85;59.03;97982.25;5048609;28;19928;-84
2024/04/06 01:51:08;;;;;;;;;;;;;;;15.83;58.94;97978.25;5039445;28;19994;-83
2024/04/06 01:53:55;;;;;;;;;;;;;;;15.82;58.89;97974.72;5038964;28;19968;-84
2024/04/06 01:56:41;;;;;;;;;;;;;;;15.84;59.13;97977.13;5038909;28;20334;-85
2024/04/06 01:59:33;;;;;;;;;;;;;;;15.80;59.28;97976.19;5043224;28;19931;-84
2024/04/06 02:02:19;;;;;;;;;;;;;;;15.81;58.90;97980.53;5051801;28;20019;-84
2024/04/06 02:05:07;;;;;;;;;;;;;;;15.77;59.06;97982.38;5053435;28;20387;-84
2024/04/06 02:07:53;;;;;;;;;;;;;;;15.77;59.10;97980.44;5027688;28;19925;-85
2024/04/06 02:10:41;;;;;;;;;;;;;;;15.77;59.19;97990.59;5044362;28;19931;-87
2024/04/06 02:13:28;;;;;;;;;;;;;;;15.78;58.76;97986.72;5039367;28;19924;-87
2024/04/06 02:16:16;;;;;;;;;;;;;;;15.79;58.76;97993.78;5045397;28;19925;-87
2024/04/06 02:19:03;;;;;;;;;;;;;;;15.72;58.88;97999.84;5055280;28;20399;-87
2024/04/06 02:21:49;;;;;;;;;;;;;;;15.75;59.26;97995.59;5041804;28;19972;-88
2024/04/06 02:24:37;;;;;;;;;;;;;;;15.75;58.94;97992.88;5046039;28;19932;-87
2024/04/06 02:27:23;;;;;;;;;;;;;;;15.73;59.30;97989.69;5048422;28;19932;-87
2024/04/06 02:30:10;;;;;;;;;;;;;;;15.71;59.00;97988.09;5050771;28;19933;-87
2024/04/06 02:32:58;;;;;;;;;;;;;;;15.70;59.41;97991.94;5045001;28;19924;-86
2024/04/06 02:35:45;;;;;;;;;;;;;;;15.70;59.25;97991.94;5056035;28;19978;-86
2024/04/06 02:38:31;;;;;;;;;;;;;;;15.70;59.26;97994.69;5052101;28;19929;-87
2024/04/06 02:41:18;;;;;;;;;;;;;;;15.67;59.26;98000.88;5049955;28;19924;-87
2024/04/06 02:44:04;;;;;;;;;;;;;;;15.65;59.49;97994.91;5047037;28;19925;-87
2024/04/06 02:46:52;;;;;;;;;;;;;;;15.67;59.33;97994.59;5069069;28;19978;-88
2024/04/06 02:49:39;;;;;;;;;;;;;;;15.63;59.60;97989.00;5040967;28;19978;-79
2024/04/06 02:52:26;;;;;;;;;;;;;;;15.63;59.29;97990.94;5046053;28;19978;-79
2024/04/06 02:55:14;;;;;;;;;;;;;;;15.61;59.45;97987.72;5050295;28;19925;-78
2024/04/06 02:58:01;;;;;;;;;;;;;;;15.59;59.33;97989.97;5039178;28;19924;-76
2024/04/06 03:00:47;;;;;;;;;;;;;;;15.53;59.72;97986.69;5036825;28;19932;-78
2024/04/06 03:03:35;;;;;;;;;;;;;;;15.54;59.28;97982.78;5043067;28;19932;-77
2024/04/06 03:06:23;;;;;;;;;;;;;;;15.56;59.42;97986.00;5048377;28;19935;-78
2024/04/06 03:09:10;;;;;;;;;;;;;;;15.53;59.38;97994.09;5043709;28;19925;-79
2024/04/06 03:11:56;;;;;;;;;;;;;;;15.45;59.71;97984.84;5043314;28;20011;-79
2024/04/06 03:14:44;;;;;;;;;;;;;;;15.44;59.27;97983.25;5044663;28;20039;-78
2024/04/06 03:17:31;;;;;;;;;;;;;;;15.43;59.47;97981.66;5046871;28;20007;-77
2024/04/06 03:20:18;;;;;;;;;;;;;;;15.34;60.01;97989.16;5038924;28;19929;-78
2024/04/06 03:23:06;;;;;;;;;;;;;;;15.29;60.65;97979.25;5050206;28;20372;-77
2024/04/06 03:25:53;;;;;;;;;;;;;;;15.32;60.40;97966.81;5039537;28;19925;-78
2024/04/06 03:28:39;;;;;;;;;;;;;;;15.28;60.04;97971.38;5051986;28;19932;-77
2024/04/06 03:31:26;;;;;;;;;;;;;;;15.24;60.30;97981.41;5052427;28;19932;-77
2024/04/06 03:34:12;;;;;;;;;;;;;;;15.25;60.19;97985.75;5044510;28;19932;-77
2024/04/06 03:37:00;;;;;;;;;;;;;;;15.23;60.31;97986.06;5052935;28;19924;-78
2024/04/06 03:39:48;;;;;;;;;;;;;;;15.17;60.33;97980.00;5040234;28;19928;-79
2024/04/06 03:42:35;;;;;;;;;;;;;;;15.23;60.22;97977.06;5052649;28;19978;-77
2024/04/06 03:45:22;;;;;;;;;;;;;;;15.22;60.03;97970.00;5036810;28;19928;-77
2024/04/06 03:48:09;;;;;;;;;;;;;;;15.18;60.19;97959.75;5052561;28;19929;-78
2024/04/06 03:50:56;;;;;;;;;;;;;;;15.19;59.83;97961.34;5038436;28;19932;-79
2024/04/06 03:53:43;;;;;;;;;;;;;;;15.11;60.85;97964.16;5042014;28;19929;-78
2024/04/06 03:56:32;;;;;;;;;;;;;;;15.09;60.56;97971.91;5053396;28;19932;-78
2024/04/06 03:59:19;;;;;;;;;;;;;;;15.08;60.67;97981.28;5042180;28;19970;-80
2024/04/06 04:02:05;;;;;;;;;;;;;;;15.08;60.61;97990.28;5050215;28;19931;-81
2024/04/06 04:04:52;;;;;;;;;;;;;;;15.09;60.25;97988.34;5037711;28;19932;-80
2024/04/06 04:07:38;;;;;;;;;;;;;;;15.04;60.73;97986.63;5038883;28;19931;-80
2024/04/06 04:10:25;;;;;;;;;;;;;;;15.09;60.83;97994.59;5052293;28;19928;-80
2024/04/06 04:13:13;;;;;;;;;;;;;;;15.16;60.42;97983.88;5040192;28;19932;-80
2024/04/06 04:16:00;;;;;;;;;;;;;;;15.27;59.91;97984.25;5044799;28;19931;-81
2024/04/06 04:18:46;;;;;;;;;;;;;;;15.34;59.01;97975.47;5044626;28;19954;-79
2024/04/06 04:21:33;;;;;;;;;;;;;;;15.41;58.95;97983.94;5049548;28;19924;-80
2024/04/06 04:24:19;;;;;;;;;;;;;;;15.45;58.63;97988.41;5048480;28;19926;-81
2024/04/06 04:27:07;;;;;;;;;;;;;;;15.46;58.75;97991.94;5039940;28;20023;-80
2024/04/06 04:29:55;;;;;;;;;;;;;;;15.51;58.92;97983.50;5057738;28;19948;-91
2024/04/06 04:32:42;;;;;;;;;;;;;;;15.53;58.61;98002.31;5042857;28;19932;-91
2024/04/06 04:35:28;;;;;;;;;;;;;;;15.53;58.86;98005.84;5043685;28;20380;-92
2024/04/06 04:38:16;;;;;;;;;;;;;;;15.55;58.59;98008.22;5037852;28;20008;-92
2024/04/06 04:41:02;;;;;;;;;;;;;;;15.59;58.36;98017.38;5045707;28;20356;-92
2024/04/06 04:43:50;;;;;;;;;;;;;;;15.58;58.78;98024.00;5048375;28;20315;-91
2024/04/06 04:46:37;;;;;;;;;;;;;;;15.54;58.90;98023.88;5036739;28;20349;-91
2024/04/06 04:49:25;;;;;;;;;;;;;;;15.50;59.16;98025.72;5049766;28;19928;-91
2024/04/06 04:52:11;;;;;;;;;;;;;;;15.43;59.21;98030.94;5050743;28;20026;-91
2024/04/06 04:55:00;;;;;;;;;;;;;;;15.49;59.40;98034.25;5052774;28;19924;-91
2024/04/06 04:57:46;;;;;;;;;;;;;;;15.52;58.64;98025.34;5073318;28;20044;-91
2024/04/06 05:00:34;;;;;;;;;;;;;;;15.46;59.01;98031.06;5052477;28;19928;-91
2024/04/06 05:03:22;;;;;;;;;;;;;;;15.38;59.52;98025.66;5065383;28;19931;-90
2024/04/06 05:06:09;;;;;;;;;;;;;;;15.37;59.93;98029.56;5052267;28;19947;-90
2024/04/06 05:08:57;;;;;;;;;;;;;;;15.37;59.82;98022.13;5041878;28;19931;-86
2024/04/06 05:11:48;;;;;;;;;;;;;;;15.23;60.59;98026.31;5052301;28;19925;-86
2024/04/06 05:14:35;;;;;;;;;;;;;;;15.22;60.15;98027.47;5045342;28;20416;-86
2024/04/06 05:17:22;;;;;;;;;;;;;;;15.18;60.58;98030.91;5058735;28;20007;-85
2024/04/06 05:20:10;;;;;;;;;;;;;;;15.20;60.47;98034.09;5046900;28;19925;-85
2024/04/06 05:22:57;;;;;;;;;;;;;;;15.20;60.75;98046.97;5061435;28;19924;-80
2024/04/06 05:25:43;;;;;;;;;;;;;;;15.19;60.62;98057.13;5065384;28;19929;-84
2024/04/06 05:28:30;;;;;;;;;;;;;;;15.19;61.02;98053.59;5068121;28;19924;-84
2024/04/06 05:31:17;;;;;;;;;;;;;;;15.25;60.54;98057.69;5068041;28;19925;-81
2024/04/06 05:34:04;;;;;;;;;;;;;;;15.28;60.41;98061.69;5051458;28;19928;-82
2024/04/06 05:36:53;;;;;;;;;;;;;;;15.27;60.39;98076.50;5051316;28;20406;-85
2024/04/06 05:39:40;;;;;;;;;;;;;;;15.26;60.42;98066.72;5045094;28;20329;-81
2024/04/06 05:42:27;;;;;;;;;;;;;;;15.31;60.57;98063.75;5043994;28;20295;-79
2024/04/06 05:45:14;;;;;;;;;;;;;;;15.34;60.87;98065.81;5043118;28;19933;-80
2024/04/06 05:48:03;;;;;;;;;;;;;;;15.31;61.34;98061.81;5056316;28;20038;-85
2024/04/06 05:50:50;;;;;;;;;;;;;;;15.42;60.75;98067.66;5050295;28;19925;-89
2024/04/06 05:53:40;;;;;;;;;;;;;;;15.44;60.07;98059.91;5038944;28;19940;-87
2024/04/06 05:56:27;;;;;;;;;;;;;;;15.52;60.07;98055.47;5055049;28;20257;-78
2024/04/06 05:59:14;;;;;;;;;;;;;;;15.54;59.89;98055.94;5049712;28;19924;-83
2024/04/06 06:02:01;;;;;;;;;;;;;;;15.57;59.80;98050.56;5044231;28;19931;-84
2024/04/06 06:04:47;;;;;;;;;;;;;;;15.60;59.61;98055.34;5040399;28;19924;-92
2024/04/06 06:07:34;;;;;;;;;;;;;;;15.54;60.04;98064.94;5060799;28;19975;-91
2024/04/06 06:10:22;;;;;;;;;;;;;;;15.57;60.44;98063.47;5039705;28;19928;-88
2024/04/06 06:13:09;;;;;;;;;;;;;;;15.60;60.22;98071.78;5047847;28;19925;-90
2024/04/06 06:15:55;;;;;;;;;;;;;;;15.60;60.45;98068.25;5047020;28;20461;-91
2024/04/06 06:18:42;;;;;;;;;;;;;;;15.64;60.35;98075.47;5045906;28;19932;-89
2024/04/06 06:21:29;;;;;;;;;;;;;;;15.69;60.45;98082.69;5045792;28;20331;-89
2024/04/06 06:24:16;;;;;;;;;;;;;;;15.76;60.69;98073.91;5060922;28;19925;-88
2024/04/06 06:27:05;;;;;;;;;;;;;;;15.76;59.87;98082.91;5057994;28;20384;-91
2024/04/06 06:29:52;;;;;;;;;;;;;;;15.71;60.81;98080.38;5039738;28;19925;-87
2024/04/06 06:32:39;;;;;;;;;;;;;;;15.77;61.03;98078.25;5056455;28;19925;-86
2024/04/06 06:35:26;;;;;;;;;;;;;;;15.85;60.48;98074.59;5054471;28;19970;-82
2024/04/06 06:38:13;;;;;;;;;;;;;;;15.89;59.42;98081.00;5052141;28;19931;-83
2024/04/06 06:40:59;;;;;;;;;;;;;;;15.94;59.77;98078.81;5048341;28;19948;-82
2024/04/06 06:43:47;;;;;;;;;;;;;;;15.97;59.50;98080.88;5046608;28;19925;-79
2024/04/06 06:46:34;;;;;;;;;;;;;;;16.03;58.42;98075.94;5053391;28;19929;-86
2024/04/06 06:49:21;;;;;;;;;;;;;;;16.10;58.42;98072.66;5050359;28;20011;-92
2024/04/06 06:52:10;;;;;;;;;;;;;;;16.09;58.45;98073.81;5043763;28;19924;-92
2024/04/06 06:54:58;;;;;;;;;;;;;;;16.20;57.34;98078.47;5040480;28;19960;-96
2024/04/06 06:57:47;;;;;;;;;;;;;;;16.26;57.93;98064.53;5059659;28;19995;-95
2024/04/06 07:00:36;;;;;;;;;;;;;;;16.29;58.52;98066.56;5037531;28;19951;-95
2024/04/06 07:03:23;;;;;;;;;;;;;;;16.39;57.97;98063.38;5052829;28;20020;-95
2024/04/06 07:06:12;;;;;;;;;;;;;;;16.41;57.27;98058.34;5038371;28;19963;-96
2024/04/06 07:09:00;;;;;;;;;;;;;;;16.47;57.65;98065.19;5044461;28;19924;-94
2024/04/06 07:11:46;;;;;;;;;;;;;;;16.56;57.76;98059.56;5061024;28;19925;-96
2024/04/06 07:14:34;;;;;;;;;;;;;;;16.63;57.76;98057.03;5049557;28;19924;-94
2024/04/06 07:17:23;;;;;;;;;;;;;;;16.66;56.92;98053.59;5032900;28;19925;-95
2024/04/06 07:20:11;;;;;;;;;;;;;;;16.77;56.11;98061.00;5056410;28;20008;-93
2024/04/06 07:22:58;;;;;;;;;;;;;;;16.86;55.96;98060.06;5044759;28;19989;-93
2024/04/06 07:25:45;;;;;;;;;;;;;;;16.91;56.32;98055.13;5044377;28;19924;-94
2024/04/06 07:28:32;;;;;;;;;;;;;;;16.93;54.27;98063.00;5042247;28;20627;-95
2024/04/06 07:31:19;;;;;;;;;;;;;;;17.05;53.87;98062.97;5033979;28;20034;-95
2024/04/06 07:34:07;;;;;;;;;;;;;;;17.13;52.72;98062.00;5059465;28;19994;-93
2024/04/06 07:36:55;;;;;;;;;;;;;;;17.24;52.26;98068.59;5067292;28;19973;-94
2024/04/06 07:39:43;;;;;;;;;;;;;;;17.34;52.08;98066.47;5044568;28;19947;-94
2024/04/06 07:42:33;;;;;;;;;;;;;;;17.38;49.97;98067.38;5049486;28;19931;-92
2024/04/06 07:45:21;;;;;;;;;;;;;;;17.50;50.24;98078.28;5048447;28;20015;-94
2024/04/06 07:48:07;;;;;;;;;;;;;;;17.53;49.63;98080.34;5045936;28;19951;-96
2024/04/06 07:50:55;;;;;;;;;;;;;;;17.61;49.95;98084.06;5040059;28;20018;-94
2024/04/06 07:53:42;;;;;;;;;;;;;;;17.66;51.30;98090.09;5040017;28;19932;-96
2024/04/06 07:56:30;;;;;;;;;;;;;;;17.72;50.61;98088.69;5040406;28;19935;-93
2024/04/06 07:59:16;;;;;;;;;;;;;;;17.83;50.22;98088.19;5035991;28;19948;-77
2024/04/06 08:02:03;;;;;;;;;;;;;;;17.91;49.97;98087.22;5051375;28;19924;-79
2024/04/06 08:04:50;;;;;;;;;;;;;;;17.95;49.21;98099.06;5049645;28;19932;-79
2024/04/06 08:07:39;;;;;;;;;;;;;;;18.00;48.65;98101.56;5047274;28;20405;-77
2024/04/06 08:10:25;;;;;;;;;;;;;;;18.06;49.54;98092.72;5046407;28;20287;-77
2024/04/06 08:13:13;;;;;;;;;;;;;;;18.17;48.78;98105.91;5051633;28;19932;-77
2024/04/06 08:15:59;;;;;;;;;;;;;;;18.22;49.48;98103.69;5049552;28;19932;-77
2024/04/06 08:18:46;;;;;;;;;;;;;;;18.27;48.95;98100.66;5049386;28;19928;-77
2024/04/06 08:21:32;;;;;;;;;;;;;;;18.38;49.04;98102.88;5046497;28;20490;-77
2024/04/06 08:24:21;;;;;;;;;;;;;;;18.42;48.89;98104.53;5036973;28;19925;-77
2024/04/06 08:27:07;;;;;;;;;;;;;;;18.51;48.80;98113.38;5042042;28;19971;-77
2024/04/06 08:29:54;;;;;;;;;;;;;;;18.60;48.89;98104.94;5043838;28;19972;-78
2024/04/06 08:32:42;;;;;;;;;;;;;;;18.64;47.97;98094.78;5048199;28;20011;-78
2024/04/06 08:35:29;;;;;;;;;;;;;;;18.71;47.24;98095.00;5052307;28;20307;-78
2024/04/06 08:38:16;;;;;;;;;;;;;;;18.80;48.15;98109.34;5040318;28;19925;-77
2024/04/06 08:41:05;;;;;;;;;;;;;;;18.88;47.92;98102.03;5044167;28;19925;-78
2024/04/06 08:43:54;;;;;;;;;;;;;;;18.96;46.79;98105.72;5035930;28;19924;-78
2024/04/06 08:46:41;;;;;;;;;;;;;;;19.07;47.21;98109.50;5044233;28;19924;-78
2024/04/06 08:49:28;;;;;;;;;;;;;;;19.14;46.81;98112.41;5049155;28;20296;-77
2024/04/06 08:52:15;;;;;;;;;;;;;;;19.22;47.85;98107.81;5049069;28;19931;-78
2024/04/06 08:55:03;;;;;;;;;;;;;;;19.26;47.11;98109.50;5021173;28;20364;-77
2024/04/06 08:57:52;;;;;;;;;;;;;;;19.30;46.63;98104.06;5045024;28;20441;-77
2024/04/06 09:00:38;;;;;;;;;;;;;;;19.33;47.75;98100.56;5050850;28;19924;-77
2024/04/06 09:03:26;;;;;;;;;;;;;;;19.41;46.67;98096.78;5035744;28;20835;-77
2024/04/06 09:06:15;;;;;;;;;;;;;;;19.46;46.11;98101.22;5040345;28;19963;-77
2024/04/06 09:09:03;;;;;;;;;;;;;;;19.54;45.26;98094.66;5045044;28;20003;-78
2024/04/06 09:11:49;;;;;;;;;;;;;;;19.63;43.21;98089.75;5035044;28;19979;-83
2024/04/06 09:14:41;;;;;;;;;;;;;;;19.72;41.98;98095.03;5048610;28;19972;-83
2024/04/06 09:17:28;;;;;;;;;;;;;;;19.76;42.05;98088.41;5059458;28;19971;-81
2024/04/06 09:20:17;;;;;;;;;;;;;;;19.80;42.90;98086.50;5056181;28;20350;-82
2024/04/06 09:23:04;;;;;;;;;;;;;;;19.84;43.01;98089.31;5044988;28;19925;-89
2024/04/06 09:25:57;;;;;;;;;;;;;;;19.85;42.18;98085.38;5047468;28;19925;-81
2024/04/06 09:28:44;;;;;;;;;;;;;;;19.89;42.42;98087.03;5050041;28;19924;-81
2024/04/06 09:31:32;;;;;;;;;;;;;;;19.96;41.78;98082.81;5052041;28;19931;-77
2024/04/06 09:34:18;;;;;;;;;;;;;;;19.97;40.50;98067.84;5039180;28;19925;-78
2024/04/06 09:37:05;;;;;;;;;;;;;;;20.04;40.00;98068.78;5051063;28;19931;-76
2024/04/06 09:39:52;;;;;;;;;;;;;;;20.11;41.29;98068.88;5064198;28;20361;-76
2024/04/06 09:42:39;;;;;;;;;;;;;;;20.19;42.00;98072.56;5039702;28;19929;-86
2024/04/06 09:45:26;;;;;;;;;;;;;;;20.22;41.70;98071.81;5039562;28;20384;-85
2024/04/06 09:48:14;;;;;;;;;;;;;;;20.30;41.55;98073.50;5067836;28;19923;-87
2024/04/06 09:51:03;;;;;;;;;;;;;;;20.37;39.97;98068.09;5052201;28;19935;-87
2024/04/06 09:53:50;;;;;;;;;;;;;;;20.38;39.14;98075.19;5059692;28;19924;-88
2024/04/06 09:56:36;;;;;;;;;;;;;;;20.45;39.92;98076.47;5045639;28;19929;-84
2024/04/06 09:59:23;;;;;;;;;;;;;;;20.49;39.79;98067.09;5058707;28;20474;-85
2024/04/06 10:02:11;;;;;;;;;;;;;;;20.53;39.81;98067.16;5040394;28;19925;-84
2024/04/06 10:04:59;;;;;;;;;;;;;;;20.54;40.07;98060.47;5054522;28;19932;-81
2024/04/06 10:07:48;;;;;;;;;;;;;;;20.57;38.65;98054.22;5058825;28;19943;-85
2024/04/06 10:10:34;;;;;;;;;;;;;;;20.60;38.74;98048.72;5049366;28;20019;-81
2024/04/06 10:13:23;;;;;;;;;;;;;;;20.67;39.29;98048.03;5050225;28;19925;-83
2024/04/06 10:16:09;;;;;;;;;;;;;;;20.71;39.92;98048.06;5050787;28;19971;-83
2024/04/06 10:18:57;;;;;;;;;;;;;;;20.82;40.24;98047.03;5059026;28;19932;-83
2024/04/06 10:21:45;;;;;;;;;;;;;;;20.90;38.45;98040.44;5049498;28;19924;-84
2024/04/06 10:24:33;;;;;;;;;;;;;;;20.88;38.39;98034.50;5049061;28;20379;-82
2024/04/06 10:27:24;;;;;;;;;;;;;;;20.95;38.98;98039.31;5048531;28;19925;-82
2024/04/06 10:30:12;;;;;;;;;;;;;;;21.00;39.02;98027.13;5051347;28;19940;-80
2024/04/06 10:32:58;;;;;;;;;;;;;;;21.06;39.61;98031.16;5058849;28;20419;-88
2024/04/06 10:35:47;;;;;;;;;;;;;;;21.10;38.37;98026.47;5057069;28;19977;-92
2024/04/06 10:38:37;;;;;;;;;;;;;;;21.10;38.23;98026.47;5046261;28;19971;-92
2024/04/06 10:41:24;;;;;;;;;;;;;;;21.14;36.31;98016.22;5042813;28;19924;-91
2024/04/06 10:44:10;;;;;;;;;;;;;;;21.22;36.57;98015.13;5046424;28;19931;-91
2024/04/06 10:47:01;;;;;;;;;;;;;;;21.25;39.42;98010.81;5042071;28;19924;-90
2024/04/06 10:49:50;;;;;;;;;;;;;;;21.29;37.44;98014.41;5040007;28;19931;-93
2024/04/06 10:52:38;;;;;;;;;;;;;;;21.27;37.65;98011.25;5045824;28;19932;-91
2024/04/06 10:55:27;;;;;;;;;;;;;;;21.28;38.82;98010.84;5037728;28;19929;-86
2024/04/06 10:58:14;;;;;;;;;;;;;;;21.26;37.39;98002.16;5040478;28;19928;-86
2024/04/06 11:01:06;;;;;;;;;;;;;;;21.35;37.25;97991.59;5045888;28;19970;-86
2024/04/06 11:03:54;;;;;;;;;;;;;;;21.37;37.27;97989.25;5043213;28;19924;-86
2024/04/06 11:06:40;;;;;;;;;;;;;;;21.49;36.37;98004.75;5040250;28;19928;-88
2024/04/06 11:09:27;;;;;;;;;;;;;;;21.50;34.45;98008.31;5042596;28;19933;-87
2024/04/06 11:12:16;;;;;;;;;;;;;;;21.56;33.46;97995.72;5052743;28;19932;-83
2024/04/06 11:15:02;;;;;;;;;;;;;;;21.59;35.27;97992.22;5053888;28;20539;-84
2024/04/06 11:17:49;;;;;;;;;;;;;;;21.60;35.26;97988.28;5044490;28;19925;-83
2024/04/06 11:20:35;;;;;;;;;;;;;;;21.62;33.73;97983.13;5036982;28;19991;-84
2024/04/06 11:23:23;;;;;;;;;;;;;;;21.65;33.42;97985.16;5041327;28;19959;-83
2024/04/06 11:26:09;;;;;;;;;;;;;;;21.59;35.42;97984.72;5054096;28;20402;-84
2024/04/06 11:28:58;;;;;;;;;;;;;;;21.57;35.39;97989.03;5045370;28;19935;-84
2024/04/06 11:31:44;;;;;;;;;;;;;;;21.67;32.77;97985.56;5045877;28;19924;-84
2024/04/06 11:34:32;;;;;;;;;;;;;;;21.64;34.38;97978.84;5037186;28;19970;-84
2024/04/06 11:37:19;;;;;;;;;;;;;;;21.76;33.51;97980.50;5051323;28;19932;-82
2024/04/06 11:40:07;;;;;;;;;;;;;;;21.83;34.68;97974.22;5055247;28;19924;-83
2024/04/06 11:42:53;;;;;;;;;;;;;;;21.90;32.87;97968.75;5049167;28;19925;-89
2024/04/06 11:45:42;;;;;;;;;;;;;;;21.89;35.58;97970.72;5056499;28;19998;-81
2024/04/06 11:48:28;;;;;;;;;;;;;;;21.93;32.86;97976.28;5062873;28;19924;-85
2024/04/06 11:51:15;;;;;;;;;;;;;;;21.98;34.37;97965.63;5023148;28;20635;-84
2024/04/06 11:54:02;;;;;;;;;;;;;;;21.94;34.21;97962.06;5030569;28;19925;-81
2024/04/06 11:56:49;;;;;;;;;;;;;;;21.94;34.29;97964.84;5048762;28;20003;-81
2024/04/06 11:59:35;;;;;;;;;;;;;;;21.92;32.36;97961.66;5047960;28;20338;-82
2024/04/06 12:02:23;;;;;;;;;;;;;;;21.99;33.99;97966.44;5042353;28;19929;-81
2024/04/06 12:05:09;;;;;;;;;;;;;;;22.06;31.19;97960.97;5053954;28;20380;-81
2024/04/06 12:07:56;;;;;;;;;;;;;;;22.17;33.46;97967.38;5054581;28;19924;-86
2024/04/06 12:10:43;;;;;;;;;;;;;;;22.17;30.79;97967.38;5042673;28;19965;-74
2024/04/06 12:13:30;;;;;;;;;;;;;;;22.27;30.10;97960.31;5037757;28;20359;-74
2024/04/06 12:16:16;;;;;;;;;;;;;;;22.26;33.05;97960.69;5046009;28;20372;-74
2024/04/06 12:19:04;;;;;;;;;;;;;;;22.18;31.41;97957.88;5049925;28;19932;-74
2024/04/06 12:21:51;;;;;;;;;;;;;;;22.22;32.91;97961.47;5043150;28;19925;-76
2024/04/06 12:24:40;;;;;;;;;;;;;;;22.23;34.24;97959.50;5054097;28;20419;-74
2024/04/06 12:27:26;;;;;;;;;;;;;;;22.33;31.29;97944.91;5035253;28;19929;-74
2024/04/06 12:30:14;;;;;;;;;;;;;;;22.38;29.88;97944.56;5038137;28;20428;-74
2024/04/06 12:33:00;;;;;;;;;;;;;;;22.32;33.48;97940.56;5047935;28;19928;-74
2024/04/06 12:35:50;;;;;;;;;;;;;;;22.30;32.05;97947.66;5052504;28;20550;-75
2024/04/06 12:38:36;;;;;;;;;;;;;;;22.41;32.73;97942.97;5048936;28;20283;-80
2024/04/06 12:41:23;;;;;;;;;;;;;;;22.40;33.00;97942.19;5041140;28;19931;-75
2024/04/06 12:44:09;;;;;;;;;;;;;;;22.36;31.62;97943.34;5036639;28;20011;-75
2024/04/06 12:46:58;;;;;;;;;;;;;;;22.44;31.56;97936.66;5027566;28;19925;-76
2024/04/06 12:49:44;;;;;;;;;;;;;;;22.45;32.31;97938.25;5047707;28;20007;-76
2024/04/06 12:52:33;;;;;;;;;;;;;;;22.51;34.57;97936.69;5036658;28;19928;-75
2024/04/06 12:55:20;;;;;;;;;;;;;;;23.09;30.96;97948.75;5040036;28;19925;-83
2024/04/06 12:58:07;;;;;;;;;;;;;;;23.70;29.06;97936.53;5047020;28;19925;-84
2024/04/06 13:00:53;;;;;;;;;;;;;;;24.30;27.94;97929.28;5052522;28;20491;-84
2024/04/06 13:03:40;;;;;;;;;;;;;;;24.61;28.34;97935.94;5041145;28;19950;-84
2024/04/06 13:06:27;;;;;;;;;;;;;;;24.61;28.41;97930.38;5039044;28;19932;-84
2024/04/06 13:09:15;;;;;;;;;;;;;;;24.77;28.87;97924.34;5056516;28;19925;-85
2024/04/06 13:12:02;;;;;;;;;;;;;;;24.93;27.44;97924.63;5053853;28;19931;-84
2024/04/06 13:14:49;;;;;;;;;;;;;;;24.96;28.76;97918.25;5040769;28;19925;-78
2024/04/06 13:17:36;;;;;;;;;;;;;;;24.52;26.86;97827.25;5047080;28;20268;-76
2024/04/06 13:20:25;;;;;;;;;;;;;;;24.15;31.57;97922.19;5043804;28;19925;-78
2024/04/06 13:23:13;;;;;;;;;;;;;;;23.37;33.19;97915.50;5053813;28;19924;-77
2024/04/06 13:26:00;;;;;;;;;;;;;;;23.36;29.49;97913.13;5026575;28;20396;-77
2024/04/06 13:28:48;;;;;;;;;;;;;;;23.35;28.59;97914.34;5048052;28;19978;-86
2024/04/06 13:31:34;;;;;;;;;;;;;;;24.02;27.86;97905.97;5063825;28;19925;-86
2024/04/06 13:34:21;;;;;;;;;;;;;;;24.45;27.24;97894.72;5049085;28;19924;-83
2024/04/06 13:37:08;;;;;;;;;;;;;;;24.62;29.29;97898.63;5049490;28;19935;-84
2024/04/06 13:39:55;;;;;;;;;;;;;;;24.84;27.00;97893.72;5046115;28;20020;-84
2024/04/06 13:42:44;;;;;;;;;;;;;;;25.07;26.56;97895.97;5061018;28;19928;-85
2024/04/06 13:45:31;;;;;;;;;;;;;;;25.16;25.35;97895.53;5052045;28;19931;-84
2024/04/06 13:48:17;;;;;;;;;;;;;;;25.21;26.35;97886.75;5056851;28;20413;-76
2024/04/06 13:51:04;;;;;;;;;;;;;;;25.15;26.31;97882.84;5044030;28;19929;-82
2024/04/06 13:53:51;;;;;;;;;;;;;;;25.20;26.10;97888.75;5044963;28;19931;-79
2024/04/06 13:56:39;;;;;;;;;;;;;;;25.23;26.29;97876.78;5052101;28;19936;-79
2024/04/06 13:59:27;;;;;;;;;;;;;;;25.26;25.98;97869.63;5042614;28;19940;-74
2024/04/06 14:02:14;;;;;;;;;;;;;;;25.13;29.28;97872.09;5040968;28;19925;-86
2024/04/06 14:05:00;;;;;;;;;;;;;;;25.10;27.99;97867.38;5052163;28;19925;-77
2024/04/06 14:07:49;;;;;;;;;;;;;;;25.12;27.87;97864.19;5041228;28;19933;-76
2024/04/06 14:10:35;;;;;;;;;;;;;;;25.03;28.16;97868.16;5031923;28;19928;-73
2024/04/06 14:13:25;;;;;;;;;;;;;;;24.95;27.26;97857.53;5038001;28;20300;-76
2024/04/06 14:16:12;;;;;;;;;;;;;;;24.79;28.83;97863.59;5043632;28;19975;-76
2024/04/06 14:19:00;;;;;;;;;;;;;;;24.77;28.60;97857.66;5052763;28;19932;-74
2024/04/06 14:21:46;;;;;;;;;;;;;;;24.76;29.06;97853.28;5036356;28;19925;-81
2024/04/06 14:24:34;;;;;;;;;;;;;;;24.80;29.12;97860.38;5045676;28;20460;-84
2024/04/06 14:27:20;;;;;;;;;;;;;;;24.78;27.97;97862.78;5032238;28;19925;-84
2024/04/06 14:33:10;;;;;;;;;;;;;;;24.69;27.35;97850.56;5029749;28;20015;-87
2024/04/06 14:35:58;;;;;;;;;;;;;;;24.66;28.51;97848.56;5017411;28;20448;-76